KANJ

Sault Ste Marie Municipal / Sanderson Field Airport

Sault Ste Marie, Michigan, USA
METAR KANJ 181255Z AUTO 29013G21KT 6SM -SN SCT027 OVC039 M06/M10 A2999 RMK AO2 SNE1159B03E17B33 SLP164 P0001 T10611100
Observed Flight Rules
Jan-18 @ 12:55 UTC (an hour ago) Visual Flight Rules
Wind Visibility Clouds Conditions
290° at 13 knots
 Gusting to 21 knots
6 miles
  • Scattered at 2,700' AGL
  • Overcast at 3,900' AGL
  • Light Snow
Temperatures Readings Precipitation
Current -6°C / 21°F
Dewpoint -10°C / 14°F
Humidity 74%
Altimeter 29.99" Hg
Pressure 1016.4 hPa
Elevation 218
Current Rain 0.01
METAR KANJ 181255Z AUTO 29013G21KT 6SM -SN SCT027 OVC039 M06/M10 A2999 RMK AO2 SNE1159B03E17B33 SLP164 P0001 T10611100
Observed Flight Rules
Jan-18 @ 12:55 UTC
(an hour ago)
VFR
Wind Visibility
290° at 13 knots
 Gusting to 21 knots
6 miles
Clouds
  • Scattered at 2,700' AGL
  • Overcast at 3,900' AGL
Conditions
  • Light Snow
Temperature Dewpoint
-6°C / 21°F -10°C / 14°F
Humidity Altimeter Pressure
74% 29.99" Hg 1016.4 hPa
Current Rain
0.01